sensor_id;sensor_type;location;lat;lon;timestamp;P1;durP1;ratioP1;P2;durP2;ratioP2
68523;SDS011;55524;51.380;13.372;2023-05-10T00:02:17;4.50;;;3.50;;
68523;SDS011;55524;51.380;13.372;2023-05-10T00:04:43;3.70;;;3.33;;
68523;SDS011;55524;51.380;13.372;2023-05-10T00:07:10;3.28;;;2.97;;
68523;SDS011;55524;51.380;13.372;2023-05-10T00:09:36;4.18;;;3.40;;
68523;SDS011;55524;51.380;13.372;2023-05-10T00:12:02;3.90;;;2.97;;
68523;SDS011;55524;51.380;13.372;2023-05-10T00:14:29;4.13;;;3.00;;
68523;SDS011;55524;51.380;13.372;2023-05-10T00:16:55;3.70;;;3.40;;
68523;SDS011;55524;51.380;13.372;2023-05-10T00:19:21;3.70;;;3.20;;
68523;SDS011;55524;51.380;13.372;2023-05-10T00:21:47;3.20;;;2.90;;
68523;SDS011;55524;51.380;13.372;2023-05-10T00:24:14;3.22;;;3.03;;
68523;SDS011;55524;51.380;13.372;2023-05-10T00:26:40;4.22;;;3.00;;
68523;SDS011;55524;51.380;13.372;2023-05-10T00:29:07;5.00;;;3.00;;
68523;SDS011;55524;51.380;13.372;2023-05-10T00:31:33;3.20;;;2.83;;
68523;SDS011;55524;51.380;13.372;2023-05-10T00:33:59;3.58;;;3.15;;
68523;SDS011;55524;51.380;13.372;2023-05-10T00:36:26;3.40;;;2.55;;
68523;SDS011;55524;51.380;13.372;2023-05-10T00:38:52;3.95;;;3.20;;
68523;SDS011;55524;51.380;13.372;2023-05-10T00:41:19;3.00;;;2.80;;
68523;SDS011;55524;51.380;13.372;2023-05-10T00:43:46;3.75;;;2.83;;
68523;SDS011;55524;51.380;13.372;2023-05-10T00:46:14;3.30;;;3.00;;
68523;SDS011;55524;51.380;13.372;2023-05-10T00:48:40;3.47;;;2.95;;
68523;SDS011;55524;51.380;13.372;2023-05-10T00:51:08;5.32;;;2.92;;
68523;SDS011;55524;51.380;13.372;2023-05-10T00:53:34;3.75;;;2.70;;
68523;SDS011;55524;51.380;13.372;2023-05-10T00:56:01;5.18;;;3.00;;
68523;SDS011;55524;51.380;13.372;2023-05-10T00:58:28;3.00;;;2.78;;
68523;SDS011;55524;51.380;13.372;2023-05-10T01:00:56;3.55;;;3.10;;
68523;SDS011;55524;51.380;13.372;2023-05-10T01:03:23;5.82;;;2.70;;
68523;SDS011;55524;51.380;13.372;2023-05-10T01:05:50;4.65;;;2.88;;
68523;SDS011;55524;51.380;13.372;2023-05-10T01:08:17;3.40;;;2.85;;
68523;SDS011;55524;51.380;13.372;2023-05-10T01:10:43;3.28;;;2.83;;
68523;SDS011;55524;51.380;13.372;2023-05-10T01:13:10;3.55;;;2.88;;
68523;SDS011;55524;51.380;13.372;2023-05-10T01:15:37;3.13;;;2.83;;
68523;SDS011;55524;51.380;13.372;2023-05-10T01:18:05;2.80;;;2.60;;
68523;SDS011;55524;51.380;13.372;2023-05-10T01:20:35;3.15;;;2.85;;
68523;SDS011;55524;51.380;13.372;2023-05-10T01:26:33;4.03;;;3.03;;
68523;SDS011;55524;51.380;13.372;2023-05-10T01:35:00;3.13;;;2.80;;
68523;SDS011;55524;51.380;13.372;2023-05-10T01:37:46;4.07;;;2.70;;
68523;SDS011;55524;51.380;13.372;2023-05-10T01:40:45;3.22;;;2.92;;
68523;SDS011;55524;51.380;13.372;2023-05-10T01:43:24;4.35;;;2.50;;
68523;SDS011;55524;51.380;13.372;2023-05-10T01:46:01;2.92;;;2.70;;
68523;SDS011;55524;51.380;13.372;2023-05-10T01:48:38;3.83;;;3.00;;
68523;SDS011;55524;51.380;13.372;2023-05-10T01:51:19;3.58;;;2.50;;
68523;SDS011;55524;51.380;13.372;2023-05-10T01:53:54;3.30;;;2.60;;
68523;SDS011;55524;51.380;13.372;2023-05-10T01:56:28;4.65;;;3.08;;
68523;SDS011;55524;51.380;13.372;2023-05-10T01:58:57;3.22;;;2.97;;
68523;SDS011;55524;51.380;13.372;2023-05-10T02:01:26;3.47;;;2.58;;
68523;SDS011;55524;51.380;13.372;2023-05-10T02:03:53;2.95;;;2.75;;
68523;SDS011;55524;51.380;13.372;2023-05-10T02:06:20;2.60;;;2.40;;
68523;SDS011;55524;51.380;13.372;2023-05-10T02:08:49;2.67;;;2.47;;
68523;SDS011;55524;51.380;13.372;2023-05-10T02:11:17;2.88;;;2.67;;
68523;SDS011;55524;51.380;13.372;2023-05-10T02:13:47;6.43;;;2.70;;
68523;SDS011;55524;51.380;13.372;2023-05-10T02:16:15;3.15;;;2.92;;
68523;SDS011;55524;51.380;13.372;2023-05-10T02:18:44;4.15;;;2.85;;
68523;SDS011;55524;51.380;13.372;2023-05-10T02:21:12;3.15;;;2.78;;
68523;SDS011;55524;51.380;13.372;2023-05-10T02:23:40;3.70;;;2.63;;
68523;SDS011;55524;51.380;13.372;2023-05-10T02:26:08;5.65;;;2.75;;
68523;SDS011;55524;51.380;13.372;2023-05-10T02:28:36;3.85;;;2.90;;
68523;SDS011;55524;51.380;13.372;2023-05-10T02:31:05;4.82;;;2.60;;
68523;SDS011;55524;51.380;13.372;2023-05-10T02:33:34;2.65;;;2.45;;
68523;SDS011;55524;51.380;13.372;2023-05-10T02:36:03;2.50;;;2.30;;
68523;SDS011;55524;51.380;13.372;2023-05-10T02:38:32;4.90;;;2.55;;
68523;SDS011;55524;51.380;13.372;2023-05-10T02:41:00;2.72;;;2.53;;
68523;SDS011;55524;51.380;13.372;2023-05-10T02:43:30;2.63;;;2.42;;
68523;SDS011;55524;51.380;13.372;2023-05-10T02:45:58;2.35;;;2.15;;
68523;SDS011;55524;51.380;13.372;2023-05-10T02:48:25;5.35;;;2.50;;
68523;SDS011;55524;51.380;13.372;2023-05-10T02:50:52;3.08;;;2.70;;
68523;SDS011;55524;51.380;13.372;2023-05-10T02:53:22;3.03;;;2.70;;
68523;SDS011;55524;51.380;13.372;2023-05-10T02:55:56;2.60;;;2.40;;
68523;SDS011;55524;51.380;13.372;2023-05-10T02:58:24;2.50;;;2.25;;
68523;SDS011;55524;51.380;13.372;2023-05-10T03:00:51;2.70;;;2.50;;
68523;SDS011;55524;51.380;13.372;2023-05-10T03:03:18;5.22;;;2.83;;
68523;SDS011;55524;51.380;13.372;2023-05-10T03:05:44;3.13;;;2.72;;
68523;SDS011;55524;51.380;13.372;2023-05-10T03:08:11;2.67;;;2.40;;
68523;SDS011;55524;51.380;13.372;2023-05-10T03:16:34;4.22;;;2.50;;
68523;SDS011;55524;51.380;13.372;2023-05-10T03:21:43;4.85;;;2.60;;
68523;SDS011;55524;51.380;13.372;2023-05-10T03:24:14;11.18;;;2.72;;
68523;SDS011;55524;51.380;13.372;2023-05-10T03:26:44;5.00;;;2.50;;
68523;SDS011;55524;51.380;13.372;2023-05-10T03:29:11;3.10;;;2.60;;
68523;SDS011;55524;51.380;13.372;2023-05-10T03:31:40;2.72;;;2.50;;
68523;SDS011;55524;51.380;13.372;2023-05-10T03:34:06;3.10;;;2.60;;
68523;SDS011;55524;51.380;13.372;2023-05-10T03:36:33;3.58;;;2.70;;
68523;SDS011;55524;51.380;13.372;2023-05-10T03:38:59;6.15;;;2.50;;
68523;SDS011;55524;51.380;13.372;2023-05-10T03:41:25;3.92;;;2.72;;
68523;SDS011;55524;51.380;13.372;2023-05-10T03:43:52;2.47;;;2.28;;
68523;SDS011;55524;51.380;13.372;2023-05-10T03:46:18;4.70;;;2.45;;
68523;SDS011;55524;51.380;13.372;2023-05-10T03:48:44;3.35;;;2.72;;
68523;SDS011;55524;51.380;13.372;2023-05-10T03:51:10;2.78;;;2.58;;
68523;SDS011;55524;51.380;13.372;2023-05-10T03:53:37;3.42;;;2.63;;
68523;SDS011;55524;51.380;13.372;2023-05-10T03:56:03;4.45;;;2.60;;
68523;SDS011;55524;51.380;13.372;2023-05-10T03:58:30;7.03;;;2.78;;
68523;SDS011;55524;51.380;13.372;2023-05-10T04:00:57;3.28;;;2.53;;
68523;SDS011;55524;51.380;13.372;2023-05-10T04:03:23;3.00;;;2.50;;
68523;SDS011;55524;51.380;13.372;2023-05-10T04:05:57;4.88;;;3.00;;
68523;SDS011;55524;51.380;13.372;2023-05-10T04:08:25;3.65;;;2.60;;
68523;SDS011;55524;51.380;13.372;2023-05-10T04:10:52;5.40;;;2.63;;
68523;SDS011;55524;51.380;13.372;2023-05-10T04:13:18;2.72;;;2.53;;
68523;SDS011;55524;51.380;13.372;2023-05-10T04:15:45;3.50;;;2.80;;
68523;SDS011;55524;51.380;13.372;2023-05-10T04:18:11;3.00;;;2.50;;
68523;SDS011;55524;51.380;13.372;2023-05-10T04:20:37;2.55;;;2.35;;
68523;SDS011;55524;51.380;13.372;2023-05-10T04:23:04;2.90;;;2.42;;
68523;SDS011;55524;51.380;13.372;2023-05-10T04:25:30;2.50;;;2.30;;
68523;SDS011;55524;51.380;13.372;2023-05-10T04:27:58;4.18;;;2.90;;
68523;SDS011;55524;51.380;13.372;2023-05-10T04:30:25;4.82;;;2.45;;
68523;SDS011;55524;51.380;13.372;2023-05-10T04:32:53;3.83;;;2.55;;
68523;SDS011;55524;51.380;13.372;2023-05-10T04:35:19;2.80;;;2.60;;
68523;SDS011;55524;51.380;13.372;2023-05-10T04:37:46;2.97;;;2.42;;
68523;SDS011;55524;51.380;13.372;2023-05-10T04:40:12;3.42;;;2.70;;
68523;SDS011;55524;51.380;13.372;2023-05-10T04:42:42;3.00;;;2.80;;
68523;SDS011;55524;51.380;13.372;2023-05-10T04:45:09;4.57;;;2.67;;
68523;SDS011;55524;51.380;13.372;2023-05-10T04:47:35;3.33;;;2.60;;
68523;SDS011;55524;51.380;13.372;2023-05-10T04:50:02;2.50;;;2.30;;
68523;SDS011;55524;51.380;13.372;2023-05-10T04:52:29;2.85;;;2.58;;
68523;SDS011;55524;51.380;13.372;2023-05-10T04:54:55;3.60;;;3.30;;
68523;SDS011;55524;51.380;13.372;2023-05-10T04:57:21;2.53;;;2.33;;
68523;SDS011;55524;51.380;13.372;2023-05-10T04:59:48;5.40;;;2.35;;
68523;SDS011;55524;51.380;13.372;2023-05-10T05:02:14;3.28;;;2.35;;
68523;SDS011;55524;51.380;13.372;2023-05-10T05:04:40;2.67;;;2.47;;
68523;SDS011;55524;51.380;13.372;2023-05-10T05:07:07;3.22;;;2.28;;
68523;SDS011;55524;51.380;13.372;2023-05-10T05:09:33;4.28;;;2.33;;
68523;SDS011;55524;51.380;13.372;2023-05-10T05:11:59;3.38;;;2.33;;
68523;SDS011;55524;51.380;13.372;2023-05-10T05:14:26;2.60;;;2.40;;
68523;SDS011;55524;51.380;13.372;2023-05-10T05:16:52;5.60;;;2.50;;
68523;SDS011;55524;51.380;13.372;2023-05-10T05:19:18;3.90;;;1.98;;
68523;SDS011;55524;51.380;13.372;2023-05-10T05:21:45;4.90;;;2.20;;
68523;SDS011;55524;51.380;13.372;2023-05-10T05:24:11;2.13;;;1.92;;
68523;SDS011;55524;51.380;13.372;2023-05-10T05:26:37;4.85;;;2.10;;
68523;SDS011;55524;51.380;13.372;2023-05-10T05:29:04;4.95;;;2.20;;
68523;SDS011;55524;51.380;13.372;2023-05-10T05:31:30;2.28;;;2.08;;
68523;SDS011;55524;51.380;13.372;2023-05-10T05:33:56;5.53;;;2.30;;
68523;SDS011;55524;51.380;13.372;2023-05-10T05:36:23;1.88;;;1.73;;
68523;SDS011;55524;51.380;13.372;2023-05-10T05:38:49;7.95;;;2.20;;
68523;SDS011;55524;51.380;13.372;2023-05-10T05:41:16;10.18;;;2.60;;
68523;SDS011;55524;51.380;13.372;2023-05-10T05:43:42;2.55;;;2.00;;
68523;SDS011;55524;51.380;13.372;2023-05-10T05:46:08;50.95;;;4.80;;
68523;SDS011;55524;51.380;13.372;2023-05-10T05:48:34;6.43;;;1.98;;
68523;SDS011;55524;51.380;13.372;2023-05-10T05:51:01;2.38;;;1.80;;
68523;SDS011;55524;51.380;13.372;2023-05-10T05:53:27;3.70;;;1.90;;
68523;SDS011;55524;51.380;13.372;2023-05-10T05:55:54;6.45;;;2.10;;
68523;SDS011;55524;51.380;13.372;2023-05-10T05:58:22;2.55;;;1.98;;
68523;SDS011;55524;51.380;13.372;2023-05-10T06:00:49;17.23;;;2.78;;
68523;SDS011;55524;51.380;13.372;2023-05-10T06:03:19;6.28;;;2.15;;
68523;SDS011;55524;51.380;13.372;2023-05-10T06:05:46;13.10;;;2.65;;
68523;SDS011;55524;51.380;13.372;2023-05-10T06:08:12;4.68;;;2.30;;
68523;SDS011;55524;51.380;13.372;2023-05-10T06:10:39;8.43;;;2.10;;
68523;SDS011;55524;51.380;13.372;2023-05-10T06:13:05;4.57;;;2.28;;
68523;SDS011;55524;51.380;13.372;2023-05-10T06:15:31;7.90;;;1.83;;
68523;SDS011;55524;51.380;13.372;2023-05-10T06:17:57;2.38;;;1.88;;
68523;SDS011;55524;51.380;13.372;2023-05-10T06:20:24;3.03;;;1.80;;
68523;SDS011;55524;51.380;13.372;2023-05-10T06:22:50;3.03;;;2.20;;
68523;SDS011;55524;51.380;13.372;2023-05-10T06:25:16;7.45;;;2.00;;
68523;SDS011;55524;51.380;13.372;2023-05-10T06:27:43;8.10;;;2.42;;
68523;SDS011;55524;51.380;13.372;2023-05-10T06:30:10;4.15;;;2.00;;
68523;SDS011;55524;51.380;13.372;2023-05-10T06:32:38;6.70;;;2.10;;
68523;SDS011;55524;51.380;13.372;2023-05-10T06:35:04;3.80;;;1.80;;
68523;SDS011;55524;51.380;13.372;2023-05-10T06:37:31;3.05;;;2.20;;
68523;SDS011;55524;51.380;13.372;2023-05-10T06:39:57;4.30;;;2.00;;
68523;SDS011;55524;51.380;13.372;2023-05-10T06:42:24;7.70;;;2.05;;
68523;SDS011;55524;51.380;13.372;2023-05-10T06:44:50;2.28;;;2.10;;
68523;SDS011;55524;51.380;13.372;2023-05-10T06:47:17;3.65;;;2.17;;
68523;SDS011;55524;51.380;13.372;2023-05-10T06:49:43;5.97;;;2.00;;
68523;SDS011;55524;51.380;13.372;2023-05-10T06:52:10;4.72;;;2.03;;
68523;SDS011;55524;51.380;13.372;2023-05-10T06:54:36;8.25;;;2.20;;
68523;SDS011;55524;51.380;13.372;2023-05-10T06:57:02;3.38;;;1.70;;
68523;SDS011;55524;51.380;13.372;2023-05-10T06:59:28;2.75;;;1.80;;
68523;SDS011;55524;51.380;13.372;2023-05-10T07:01:55;2.33;;;1.77;;
68523;SDS011;55524;51.380;13.372;2023-05-10T07:04:21;4.95;;;2.20;;
68523;SDS011;55524;51.380;13.372;2023-05-10T07:06:47;3.13;;;1.98;;
68523;SDS011;55524;51.380;13.372;2023-05-10T07:09:14;3.80;;;2.10;;
68523;SDS011;55524;51.380;13.372;2023-05-10T07:11:41;4.20;;;2.20;;
68523;SDS011;55524;51.380;13.372;2023-05-10T07:14:07;2.30;;;2.10;;
68523;SDS011;55524;51.380;13.372;2023-05-10T07:16:33;2.35;;;2.17;;
68523;SDS011;55524;51.380;13.372;2023-05-10T07:19:00;3.58;;;2.05;;
68523;SDS011;55524;51.380;13.372;2023-05-10T07:21:27;3.13;;;1.92;;
68523;SDS011;55524;51.380;13.372;2023-05-10T07:23:54;5.30;;;1.92;;
68523;SDS011;55524;51.380;13.372;2023-05-10T07:26:20;2.95;;;1.65;;
68523;SDS011;55524;51.380;13.372;2023-05-10T07:28:47;6.55;;;2.00;;
68523;SDS011;55524;51.380;13.372;2023-05-10T07:31:13;3.35;;;1.75;;
68523;SDS011;55524;51.380;13.372;2023-05-10T07:33:40;4.00;;;1.73;;
68523;SDS011;55524;51.380;13.372;2023-05-10T07:36:06;2.58;;;1.70;;
68523;SDS011;55524;51.380;13.372;2023-05-10T07:38:34;2.92;;;2.20;;
68523;SDS011;55524;51.380;13.372;2023-05-10T07:41:01;3.70;;;2.17;;
68523;SDS011;55524;51.380;13.372;2023-05-10T07:43:27;6.38;;;2.05;;
68523;SDS011;55524;51.380;13.372;2023-05-10T07:45:53;6.72;;;1.92;;
68523;SDS011;55524;51.380;13.372;2023-05-10T07:48:19;2.80;;;1.92;;
68523;SDS011;55524;51.380;13.372;2023-05-10T07:50:46;4.97;;;2.25;;
68523;SDS011;55524;51.380;13.372;2023-05-10T07:53:12;3.10;;;1.65;;
68523;SDS011;55524;51.380;13.372;2023-05-10T07:55:38;11.75;;;2.90;;
68523;SDS011;55524;51.380;13.372;2023-05-10T07:58:04;2.78;;;1.73;;
68523;SDS011;55524;51.380;13.372;2023-05-10T08:00:31;4.97;;;2.05;;
68523;SDS011;55524;51.380;13.372;2023-05-10T08:02:57;5.47;;;1.95;;
68523;SDS011;55524;51.380;13.372;2023-05-10T08:05:23;4.88;;;1.70;;
68523;SDS011;55524;51.380;13.372;2023-05-10T08:07:50;3.38;;;1.90;;
68523;SDS011;55524;51.380;13.372;2023-05-10T08:10:16;7.00;;;2.15;;
68523;SDS011;55524;51.380;13.372;2023-05-10T08:12:42;3.85;;;1.90;;
68523;SDS011;55524;51.380;13.372;2023-05-10T08:15:09;2.35;;;1.90;;
68523;SDS011;55524;51.380;13.372;2023-05-10T08:17:35;2.42;;;1.98;;
68523;SDS011;55524;51.380;13.372;2023-05-10T08:20:02;6.20;;;2.00;;
68523;SDS011;55524;51.380;13.372;2023-05-10T08:22:28;8.48;;;2.20;;
68523;SDS011;55524;51.380;13.372;2023-05-10T08:24:54;1.80;;;1.70;;
68523;SDS011;55524;51.380;13.372;2023-05-10T08:27:21;4.40;;;1.90;;
68523;SDS011;55524;51.380;13.372;2023-05-10T08:29:47;6.65;;;2.40;;
68523;SDS011;55524;51.380;13.372;2023-05-10T08:32:13;2.30;;;1.88;;
68523;SDS011;55524;51.380;13.372;2023-05-10T08:34:39;2.40;;;2.08;;
68523;SDS011;55524;51.380;13.372;2023-05-10T08:37:06;5.50;;;2.05;;
68523;SDS011;55524;51.380;13.372;2023-05-10T08:39:35;5.88;;;1.90;;
68523;SDS011;55524;51.380;13.372;2023-05-10T08:42:02;3.90;;;2.13;;
68523;SDS011;55524;51.380;13.372;2023-05-10T08:44:32;6.07;;;2.20;;
68523;SDS011;55524;51.380;13.372;2023-05-10T08:47:05;3.13;;;1.98;;
68523;SDS011;55524;51.380;13.372;2023-05-10T08:49:32;6.10;;;2.35;;
68523;SDS011;55524;51.380;13.372;2023-05-10T08:51:59;3.22;;;2.25;;
68523;SDS011;55524;51.380;13.372;2023-05-10T08:54:29;7.00;;;2.10;;
68523;SDS011;55524;51.380;13.372;2023-05-10T08:56:56;3.67;;;2.10;;
68523;SDS011;55524;51.380;13.372;2023-05-10T08:59:23;3.55;;;2.10;;
68523;SDS011;55524;51.380;13.372;2023-05-10T09:01:49;4.90;;;1.85;;
68523;SDS011;55524;51.380;13.372;2023-05-10T09:04:18;4.95;;;2.20;;
68523;SDS011;55524;51.380;13.372;2023-05-10T09:06:45;2.38;;;2.20;;
68523;SDS011;55524;51.380;13.372;2023-05-10T09:09:12;5.80;;;1.90;;
68523;SDS011;55524;51.380;13.372;2023-05-10T09:11:39;2.45;;;2.10;;
68523;SDS011;55524;51.380;13.372;2023-05-10T09:14:06;2.80;;;2.13;;
68523;SDS011;55524;51.380;13.372;2023-05-10T09:16:34;3.53;;;2.08;;
68523;SDS011;55524;51.380;13.372;2023-05-10T09:19:00;2.45;;;2.15;;
68523;SDS011;55524;51.380;13.372;2023-05-10T09:21:27;2.78;;;1.83;;
68523;SDS011;55524;51.380;13.372;2023-05-10T09:23:55;2.75;;;2.10;;
68523;SDS011;55524;51.380;13.372;2023-05-10T09:26:22;2.63;;;2.17;;
68523;SDS011;55524;51.380;13.372;2023-05-10T09:28:50;2.40;;;2.20;;
68523;SDS011;55524;51.380;13.372;2023-05-10T09:31:17;4.47;;;2.30;;
68523;SDS011;55524;51.380;13.372;2023-05-10T09:33:47;4.38;;;2.13;;
68523;SDS011;55524;51.380;13.372;2023-05-10T09:36:14;4.73;;;2.70;;
68523;SDS011;55524;51.380;13.372;2023-05-10T09:38:45;2.65;;;2.22;;
68523;SDS011;55524;51.380;13.372;2023-05-10T09:41:21;3.38;;;2.58;;
68523;SDS011;55524;51.380;13.372;2023-05-10T09:46:15;2.75;;;2.17;;
68523;SDS011;55524;51.380;13.372;2023-05-10T09:48:42;4.32;;;2.20;;
68523;SDS011;55524;51.380;13.372;2023-05-10T09:51:19;8.73;;;2.10;;
68523;SDS011;55524;51.380;13.372;2023-05-10T09:53:46;28.70;;;3.05;;
68523;SDS011;55524;51.380;13.372;2023-05-10T09:56:32;4.88;;;2.40;;
68523;SDS011;55524;51.380;13.372;2023-05-10T09:59:04;8.30;;;1.88;;
68523;SDS011;55524;51.380;13.372;2023-05-10T10:01:31;3.78;;;2.20;;
68523;SDS011;55524;51.380;13.372;2023-05-10T10:03:58;3.15;;;2.70;;
68523;SDS011;55524;51.380;13.372;2023-05-10T10:06:27;3.85;;;2.30;;
68523;SDS011;55524;51.380;13.372;2023-05-10T10:08:54;3.60;;;2.38;;
68523;SDS011;55524;51.380;13.372;2023-05-10T10:11:21;3.15;;;2.38;;
68523;SDS011;55524;51.380;13.372;2023-05-10T10:13:49;3.40;;;2.30;;
68523;SDS011;55524;51.380;13.372;2023-05-10T10:16:15;14.05;;;2.80;;
68523;SDS011;55524;51.380;13.372;2023-05-10T10:18:42;6.53;;;2.22;;
68523;SDS011;55524;51.380;13.372;2023-05-10T10:21:08;5.18;;;2.22;;
68523;SDS011;55524;51.380;13.372;2023-05-10T10:23:35;2.75;;;2.42;;
68523;SDS011;55524;51.380;13.372;2023-05-10T10:26:02;2.45;;;2.25;;
68523;SDS011;55524;51.380;13.372;2023-05-10T10:28:35;6.22;;;2.60;;
68523;SDS011;55524;51.380;13.372;2023-05-10T10:34:08;7.68;;;2.63;;
68523;SDS011;55524;51.380;13.372;2023-05-10T10:36:47;2.63;;;2.42;;
68523;SDS011;55524;51.380;13.372;2023-05-10T10:39:14;3.97;;;2.67;;
68523;SDS011;55524;51.380;13.372;2023-05-10T10:41:54;3.65;;;2.70;;
68523;SDS011;55524;51.380;13.372;2023-05-10T10:55:10;27.33;;;3.10;;
68523;SDS011;55524;51.380;13.372;2023-05-10T10:57:52;3.28;;;2.85;;
68523;SDS011;55524;51.380;13.372;2023-05-10T11:00:31;7.47;;;2.47;;
68523;SDS011;55524;51.380;13.372;2023-05-10T11:03:06;2.85;;;2.45;;
68523;SDS011;55524;51.380;13.372;2023-05-10T11:05:34;5.10;;;2.85;;
68523;SDS011;55524;51.380;13.372;2023-05-10T11:10:51;9.15;;;2.90;;
68523;SDS011;55524;51.380;13.372;2023-05-10T11:15:59;3.67;;;2.58;;
68523;SDS011;55524;51.380;13.372;2023-05-10T11:18:37;3.80;;;2.90;;
68523;SDS011;55524;51.380;13.372;2023-05-10T11:21:03;5.60;;;3.10;;
68523;SDS011;55524;51.380;13.372;2023-05-10T11:23:47;6.38;;;3.53;;
68523;SDS011;55524;51.380;13.372;2023-05-10T11:26:15;4.25;;;3.65;;
68523;SDS011;55524;51.380;13.372;2023-05-10T11:28:45;5.50;;;4.10;;
68523;SDS011;55524;51.380;13.372;2023-05-10T11:31:16;7.68;;;3.70;;
68523;SDS011;55524;51.380;13.372;2023-05-10T11:33:44;7.22;;;4.20;;
68523;SDS011;55524;51.380;13.372;2023-05-10T11:36:15;7.95;;;3.97;;
68523;SDS011;55524;51.380;13.372;2023-05-10T11:38:44;4.25;;;3.58;;
68523;SDS011;55524;51.380;13.372;2023-05-10T11:41:11;9.20;;;4.18;;
68523;SDS011;55524;51.380;13.372;2023-05-10T11:43:41;11.40;;;4.05;;
68523;SDS011;55524;51.380;13.372;2023-05-10T11:46:08;6.72;;;4.13;;
68523;SDS011;55524;51.380;13.372;2023-05-10T11:48:40;7.30;;;3.67;;
68523;SDS011;55524;51.380;13.372;2023-05-10T11:51:08;4.07;;;3.20;;
68523;SDS011;55524;51.380;13.372;2023-05-10T11:53:35;8.77;;;3.83;;
68523;SDS011;55524;51.380;13.372;2023-05-10T11:56:05;8.95;;;2.97;;
68523;SDS011;55524;51.380;13.372;2023-05-10T11:58:33;5.97;;;2.95;;
68523;SDS011;55524;51.380;13.372;2023-05-10T12:01:01;10.48;;;4.05;;
68523;SDS011;55524;51.380;13.372;2023-05-10T12:03:28;6.97;;;4.13;;
68523;SDS011;55524;51.380;13.372;2023-05-10T12:05:55;10.35;;;3.88;;
68523;SDS011;55524;51.380;13.372;2023-05-10T12:08:23;4.22;;;3.80;;
68523;SDS011;55524;51.380;13.372;2023-05-10T12:10:51;5.72;;;3.20;;
68523;SDS011;55524;51.380;13.372;2023-05-10T12:13:19;6.65;;;3.70;;
68523;SDS011;55524;51.380;13.372;2023-05-10T12:15:46;5.05;;;3.90;;
68523;SDS011;55524;51.380;13.372;2023-05-10T12:18:12;6.35;;;3.47;;
68523;SDS011;55524;51.380;13.372;2023-05-10T12:20:40;3.95;;;3.30;;
68523;SDS011;55524;51.380;13.372;2023-05-10T12:23:08;11.32;;;4.47;;
68523;SDS011;55524;51.380;13.372;2023-05-10T12:25:35;4.82;;;3.40;;
68523;SDS011;55524;51.380;13.372;2023-05-10T12:28:04;10.18;;;3.45;;
68523;SDS011;55524;51.380;13.372;2023-05-10T12:30:32;10.02;;;4.47;;
68523;SDS011;55524;51.380;13.372;2023-05-10T12:33:00;5.30;;;3.58;;
68523;SDS011;55524;51.380;13.372;2023-05-10T12:35:32;3.30;;;3.10;;
68523;SDS011;55524;51.380;13.372;2023-05-10T12:38:24;6.78;;;3.10;;
68523;SDS011;55524;51.380;13.372;2023-05-10T12:40:58;8.63;;;2.92;;
68523;SDS011;55524;51.380;13.372;2023-05-10T12:43:27;4.35;;;3.40;;
68523;SDS011;55524;51.380;13.372;2023-05-10T12:45:54;5.15;;;3.00;;
68523;SDS011;55524;51.380;13.372;2023-05-10T12:48:21;6.45;;;3.28;;
68523;SDS011;55524;51.380;13.372;2023-05-10T12:50:47;3.72;;;3.10;;
68523;SDS011;55524;51.380;13.372;2023-05-10T12:53:14;6.35;;;3.35;;
68523;SDS011;55524;51.380;13.372;2023-05-10T12:55:41;6.90;;;3.58;;
68523;SDS011;55524;51.380;13.372;2023-05-10T12:58:08;3.95;;;3.08;;
68523;SDS011;55524;51.380;13.372;2023-05-10T13:00:34;5.90;;;3.15;;
68523;SDS011;55524;51.380;13.372;2023-05-10T13:03:03;2.80;;;2.60;;
68523;SDS011;55524;51.380;13.372;2023-05-10T13:05:32;7.88;;;3.10;;
68523;SDS011;55524;51.380;13.372;2023-05-10T13:07:59;3.45;;;3.15;;
68523;SDS011;55524;51.380;13.372;2023-05-10T13:10:26;3.55;;;3.22;;
68523;SDS011;55524;51.380;13.372;2023-05-10T13:12:54;4.63;;;3.45;;
68523;SDS011;55524;51.380;13.372;2023-05-10T13:15:20;3.47;;;2.90;;
68523;SDS011;55524;51.380;13.372;2023-05-10T13:17:47;3.70;;;3.40;;
68523;SDS011;55524;51.380;13.372;2023-05-10T13:20:13;4.85;;;4.07;;
68523;SDS011;55524;51.380;13.372;2023-05-10T13:22:40;3.80;;;3.47;;
68523;SDS011;55524;51.380;13.372;2023-05-10T13:25:08;5.90;;;3.40;;
68523;SDS011;55524;51.380;13.372;2023-05-10T13:27:35;7.30;;;4.13;;
68523;SDS011;55524;51.380;13.372;2023-05-10T13:30:02;4.32;;;3.90;;
68523;SDS011;55524;51.380;13.372;2023-05-10T13:32:29;3.90;;;3.60;;
68523;SDS011;55524;51.380;13.372;2023-05-10T13:34:55;8.82;;;4.90;;
68523;SDS011;55524;51.380;13.372;2023-05-10T13:37:22;4.72;;;3.30;;
68523;SDS011;55524;51.380;13.372;2023-05-10T13:39:49;3.72;;;3.42;;
68523;SDS011;55524;51.380;13.372;2023-05-10T13:42:17;3.08;;;2.80;;
68523;SDS011;55524;51.380;13.372;2023-05-10T13:44:50;4.35;;;3.13;;
68523;SDS011;55524;51.380;13.372;2023-05-10T13:47:16;3.50;;;3.20;;
68523;SDS011;55524;51.380;13.372;2023-05-10T13:49:43;4.95;;;3.15;;
68523;SDS011;55524;51.380;13.372;2023-05-10T13:52:09;4.07;;;3.13;;
68523;SDS011;55524;51.380;13.372;2023-05-10T13:54:37;5.40;;;2.90;;
68523;SDS011;55524;51.380;13.372;2023-05-10T13:57:04;4.00;;;3.15;;
68523;SDS011;55524;51.380;13.372;2023-05-10T13:59:31;6.72;;;3.20;;
68523;SDS011;55524;51.380;13.372;2023-05-10T14:01:59;3.80;;;3.15;;
68523;SDS011;55524;51.380;13.372;2023-05-10T14:04:29;4.30;;;2.90;;
68523;SDS011;55524;51.380;13.372;2023-05-10T14:06:55;2.92;;;2.55;;
68523;SDS011;55524;51.380;13.372;2023-05-10T14:09:21;3.45;;;3.03;;
68523;SDS011;55524;51.380;13.372;2023-05-10T14:11:48;5.00;;;2.60;;
68523;SDS011;55524;51.380;13.372;2023-05-10T14:14:14;3.05;;;2.83;;
68523;SDS011;55524;51.380;13.372;2023-05-10T14:16:44;2.80;;;2.60;;
68523;SDS011;55524;51.380;13.372;2023-05-10T14:19:10;3.40;;;3.10;;
68523;SDS011;55524;51.380;13.372;2023-05-10T14:21:37;2.85;;;2.60;;
68523;SDS011;55524;51.380;13.372;2023-05-10T14:24:03;2.70;;;2.50;;
68523;SDS011;55524;51.380;13.372;2023-05-10T14:26:31;3.33;;;2.50;;
68523;SDS011;55524;51.380;13.372;2023-05-10T14:28:59;5.65;;;2.83;;
68523;SDS011;55524;51.380;13.372;2023-05-10T14:31:25;3.63;;;2.63;;
68523;SDS011;55524;51.380;13.372;2023-05-10T14:33:52;2.60;;;2.40;;
68523;SDS011;55524;51.380;13.372;2023-05-10T14:36:19;3.35;;;2.45;;
68523;SDS011;55524;51.380;13.372;2023-05-10T14:38:45;7.47;;;2.28;;
68523;SDS011;55524;51.380;13.372;2023-05-10T14:41:12;3.60;;;1.90;;
68523;SDS011;55524;51.380;13.372;2023-05-10T14:43:40;1.90;;;1.80;;
68523;SDS011;55524;51.380;13.372;2023-05-10T14:46:06;2.38;;;2.03;;
68523;SDS011;55524;51.380;13.372;2023-05-10T14:48:33;3.65;;;2.00;;
68523;SDS011;55524;51.380;13.372;2023-05-10T14:51:00;3.22;;;2.10;;
68523;SDS011;55524;51.380;13.372;2023-05-10T14:53:26;6.88;;;2.58;;
68523;SDS011;55524;51.380;13.372;2023-05-10T14:55:52;2.50;;;2.30;;
68523;SDS011;55524;51.380;13.372;2023-05-10T14:58:19;3.85;;;2.00;;
68523;SDS011;55524;51.380;13.372;2023-05-10T15:00:45;4.88;;;2.20;;
68523;SDS011;55524;51.380;13.372;2023-05-10T15:03:11;2.13;;;2.03;;
68523;SDS011;55524;51.380;13.372;2023-05-10T15:05:38;2.35;;;2.05;;
68523;SDS011;55524;51.380;13.372;2023-05-10T15:08:04;6.82;;;2.00;;
68523;SDS011;55524;51.380;13.372;2023-05-10T15:10:31;3.08;;;1.63;;
68523;SDS011;55524;51.380;13.372;2023-05-10T15:12:58;1.63;;;1.52;;
68523;SDS011;55524;51.380;13.372;2023-05-10T15:15:24;1.77;;;1.50;;
68523;SDS011;55524;51.380;13.372;2023-05-10T15:17:51;2.28;;;1.35;;